createdAt,value
2018-02-05T00:00:06.965Z,-1.20
2018-02-05T00:02:34.621Z,-1.20
2018-02-05T00:05:03.280Z,-1.20
2018-02-05T00:07:31.399Z,-1.20
2018-02-05T00:09:58.899Z,-1.20
2018-02-05T00:12:26.357Z,-1.20
2018-02-05T00:14:53.907Z,-1.20
2018-02-05T00:17:21.619Z,-1.10
2018-02-05T00:19:49.058Z,-1.10
2018-02-05T00:22:17.059Z,-1.20
2018-02-05T00:24:44.718Z,-1.20
2018-02-05T00:27:12.098Z,-1.20
2018-02-05T00:29:39.599Z,-1.20
2018-02-05T00:32:07.738Z,-1.20
2018-02-05T00:34:35.200Z,-1.20
2018-02-05T00:37:02.639Z,-1.10
2018-02-05T00:39:29.978Z,-1.10
2018-02-05T00:41:57.419Z,-1.10
2018-02-05T00:44:28.868Z,-1.00
2018-02-05T00:46:56.361Z,-1.00
2018-02-05T00:49:23.840Z,-1.00
2018-02-05T00:51:51.201Z,-1.00
2018-02-05T00:54:18.619Z,-1.00
2018-02-05T00:56:46.459Z,-1.00
2018-02-05T00:59:14.220Z,-1.00
2018-02-05T01:01:42.327Z,-0.90
2018-02-05T01:04:09.805Z,-1.00
2018-02-05T01:06:37.324Z,-0.90
2018-02-05T01:09:05.205Z,-0.90
2018-02-05T01:11:32.544Z,-0.80
2018-02-05T01:14:00.304Z,-0.80
2018-02-05T01:16:28.223Z,-0.80
2018-02-05T01:18:56.504Z,-0.80
2018-02-05T01:21:24.042Z,-0.80
2018-02-05T01:23:51.441Z,-0.80
2018-02-05T01:26:18.803Z,-0.80
2018-02-05T01:28:46.320Z,-0.80
2018-02-05T01:31:14.099Z,-0.90
2018-02-05T01:33:41.679Z,-1.00
2018-02-05T01:36:09.339Z,-1.00
2018-02-05T01:38:36.718Z,-0.90
2018-02-05T01:41:04.198Z,-1.00
2018-02-05T01:43:32.079Z,-1.20
2018-02-05T01:45:59.538Z,-1.30
2018-02-05T01:48:27.158Z,-1.30
2018-02-05T01:50:54.459Z,-1.20
2018-02-05T01:53:21.839Z,-1.20
2018-02-05T01:55:49.338Z,-1.30
2018-02-05T01:58:16.960Z,-1.40
2018-02-05T02:00:44.362Z,-1.50
2018-02-05T02:03:12.183Z,-1.50
2018-02-05T02:05:39.912Z,-1.50
2018-02-05T02:08:07.422Z,-1.60
2018-02-05T02:10:36.402Z,-1.80
2018-02-05T02:13:04.602Z,-1.80
2018-02-05T02:15:32.922Z,-1.80
2018-02-05T02:18:00.662Z,-1.80
2018-02-05T02:20:28.002Z,-1.50
2018-02-05T02:22:55.662Z,-1.50
2018-02-05T02:25:23.402Z,-1.70
2018-02-05T02:27:51.602Z,-2.00
2018-02-05T02:30:19.264Z,-2.00
2018-02-05T02:32:46.971Z,-2.10
2018-02-05T02:35:14.426Z,-2.20
2018-02-05T02:37:42.091Z,-2.10
2018-02-05T02:40:09.882Z,-1.90
2018-02-05T02:42:37.960Z,-1.70
2018-02-05T02:45:05.325Z,-1.70
2018-02-05T02:47:33.001Z,-1.70
2018-02-05T02:50:01.201Z,-1.50
2018-02-05T02:52:29.021Z,-1.50
2018-02-05T02:54:56.660Z,-1.50
2018-02-05T02:57:24.120Z,-1.50
2018-02-05T02:59:51.421Z,-1.60
2018-02-05T03:02:18.959Z,-1.80
2018-02-05T03:04:46.360Z,-1.80
2018-02-05T03:07:13.838Z,-1.80
2018-02-05T03:09:41.501Z,-1.70
2018-02-05T03:12:08.920Z,-1.80
2018-02-05T03:14:36.239Z,-2.00
2018-02-05T03:17:03.739Z,-2.00
2018-02-05T03:19:31.378Z,-2.00
2018-02-05T03:21:59.079Z,-2.10
2018-02-05T03:24:26.658Z,-2.10
2018-02-05T03:26:54.459Z,-2.00
2018-02-05T03:29:21.839Z,-1.80
2018-02-05T03:31:49.181Z,-1.60
2018-02-05T03:34:16.539Z,-1.70
2018-02-05T03:36:43.898Z,-1.60
2018-02-05T03:39:11.741Z,-1.50
2018-02-05T03:41:39.259Z,-1.50
2018-02-05T03:44:06.562Z,-1.60
2018-02-05T03:46:33.978Z,-1.80
2018-02-05T03:49:03.138Z,-1.90
2018-02-05T03:51:30.618Z,-1.90
2018-02-05T03:53:59.463Z,-1.90
2018-02-05T03:56:26.940Z,-1.70
2018-02-05T03:58:54.420Z,-1.60
2018-02-05T04:01:22.239Z,-1.50
2018-02-05T04:03:49.638Z,-1.40
2018-02-05T04:06:17.181Z,-1.50
2018-02-05T04:08:44.860Z,-1.70
2018-02-05T04:11:12.720Z,-1.80
2018-02-05T04:13:40.178Z,-1.80
2018-02-05T04:16:08.059Z,-1.70
2018-02-05T04:18:35.558Z,-1.70
2018-02-05T04:21:02.959Z,-1.80
2018-02-05T04:23:30.318Z,-1.90
2018-02-05T04:25:57.699Z,-1.80
2018-02-05T04:28:25.339Z,-1.70
2018-02-05T04:30:52.860Z,-1.60
2018-02-05T04:33:20.279Z,-1.50
2018-02-05T04:35:47.638Z,-1.40
2018-02-05T04:38:15.459Z,-1.30
2018-02-05T04:40:42.878Z,-1.30
2018-02-05T04:43:11.099Z,-1.30
2018-02-05T04:45:38.938Z,-1.60
2018-02-05T04:48:07.099Z,-1.80
2018-02-05T04:50:34.579Z,-1.80
2018-02-05T04:53:02.799Z,-1.70
2018-02-05T04:55:30.339Z,-1.70
2018-02-05T04:57:58.138Z,-1.70
2018-02-05T05:00:25.383Z,-1.60
2018-02-05T05:02:52.705Z,-1.50
2018-02-05T05:05:20.104Z,-1.40
2018-02-05T05:07:47.825Z,-1.30
2018-02-05T05:10:15.425Z,-1.30
2018-02-05T05:12:43.584Z,-1.30
2018-02-05T05:15:11.744Z,-1.30
2018-02-05T05:17:39.144Z,-1.30
2018-02-05T05:20:06.585Z,-1.40
2018-02-05T05:22:34.127Z,-1.40
2018-02-05T05:25:01.679Z,-1.40
2018-02-05T05:27:29.339Z,-1.40
2018-02-05T05:29:57.138Z,-1.30
2018-02-05T05:32:24.938Z,-1.30
2018-02-05T05:34:52.439Z,-1.20
2018-02-05T05:37:19.980Z,-1.20
2018-02-05T05:39:47.478Z,-1.20
2018-02-05T05:42:15.079Z,-1.10
2018-02-05T05:44:43.458Z,-1.10
2018-02-05T05:47:11.718Z,-1.10
2018-02-05T05:49:39.179Z,-1.10
2018-02-05T05:52:06.679Z,-1.10
2018-02-05T05:54:34.619Z,-1.10
2018-02-05T05:57:02.139Z,-1.00
2018-02-05T05:59:29.778Z,-1.00
2018-02-05T06:01:58.138Z,-1.00
2018-02-05T06:04:25.978Z,-0.90
2018-02-05T06:06:54.940Z,-1.00
2018-02-05T06:09:22.358Z,-1.00
2018-02-05T06:11:50.139Z,-1.00
2018-02-05T06:14:17.658Z,-1.00
2018-02-05T06:16:45.099Z,-1.00
2018-02-05T06:19:12.599Z,-1.00
2018-02-05T06:21:40.678Z,-1.00
2018-02-05T06:24:08.259Z,-1.00
2018-02-05T06:26:35.780Z,-1.00
2018-02-05T06:29:03.300Z,-1.00
2018-02-05T06:31:30.938Z,-1.00
2018-02-05T06:33:58.680Z,-0.90
2018-02-05T06:36:26.101Z,-0.90
2018-02-05T06:38:54.278Z,-0.90
2018-02-05T06:41:21.878Z,-0.90
2018-02-05T06:43:49.498Z,-0.90
2018-02-05T06:46:17.018Z,-0.80
2018-02-05T06:48:45.778Z,-0.80
2018-02-05T06:51:19.258Z,-0.80
2018-02-05T06:54:02.298Z,-0.90
2018-02-05T06:56:29.758Z,-0.90
2018-02-05T06:58:57.178Z,-0.80
2018-02-05T07:01:24.864Z,-0.70
2018-02-05T07:03:52.704Z,-0.60
2018-02-05T07:06:20.044Z,-0.60
2018-02-05T07:08:48.145Z,-0.40
2018-02-05T07:11:15.684Z,-0.40
2018-02-05T07:13:43.644Z,-0.30
2018-02-05T07:16:11.845Z,-0.20
2018-02-05T07:18:39.185Z,-0.20
2018-02-05T07:21:06.564Z,-0.20
2018-02-05T07:23:34.018Z,-0.20
2018-02-05T07:26:01.445Z,-0.10
2018-02-05T07:28:29.545Z,0.00
2018-02-05T07:30:56.905Z,0.00
2018-02-05T07:33:24.224Z,0.20
2018-02-05T07:35:51.643Z,0.30
2018-02-05T07:38:18.984Z,0.40
2018-02-05T07:40:46.460Z,0.50
2018-02-05T07:43:14.660Z,0.50
2018-02-05T07:45:42.899Z,0.60
2018-02-05T07:48:10.300Z,0.60
2018-02-05T07:50:37.620Z,0.70
2018-02-05T07:53:05.682Z,0.90
2018-02-05T07:55:33.015Z,0.80
2018-02-05T07:58:00.501Z,1.00
2018-02-05T08:00:28.001Z,1.20
2018-02-05T08:02:55.342Z,1.40
2018-02-05T08:05:24.924Z,1.60
2018-02-05T08:07:52.728Z,1.80
2018-02-05T08:10:20.086Z,2.00
2018-02-05T08:12:47.459Z,2.20
2018-02-05T08:15:14.760Z,2.20
2018-02-05T08:17:42.111Z,2.20
2018-02-05T08:20:09.406Z,2.10
2018-02-05T08:22:36.660Z,2.00
2018-02-05T08:25:03.941Z,1.90
2018-02-05T08:27:31.281Z,1.90
2018-02-05T08:29:58.783Z,2.00
2018-02-05T08:32:26.144Z,2.10
2018-02-05T08:34:53.501Z,2.20
2018-02-05T08:37:20.760Z,2.20
2018-02-05T08:39:48.059Z,2.20
2018-02-05T08:42:15.430Z,2.20
2018-02-05T08:44:43.178Z,2.20
2018-02-05T08:47:10.679Z,2.10
2018-02-05T08:49:38.058Z,2.00
2018-02-05T08:52:05.399Z,2.00
2018-02-05T08:54:32.820Z,2.10
2018-02-05T08:57:00.339Z,2.10
2018-02-05T08:59:27.861Z,2.10
2018-02-05T09:01:55.259Z,2.10
2018-02-05T09:04:22.520Z,2.10
2018-02-05T09:06:49.942Z,2.00
2018-02-05T09:09:17.381Z,2.00
2018-02-05T09:11:44.759Z,1.90
2018-02-05T09:14:12.162Z,1.90
2018-02-05T09:16:39.641Z,1.80
2018-02-05T09:19:06.958Z,1.80
2018-02-05T09:21:34.623Z,1.80
2018-02-05T09:24:02.001Z,1.90
2018-02-05T09:26:29.480Z,1.90
2018-02-05T09:28:57.038Z,2.00
2018-02-05T09:31:24.861Z,2.00
2018-02-05T09:33:52.300Z,2.00
2018-02-05T09:36:20.568Z,2.20
2018-02-05T09:38:48.659Z,2.20
2018-02-05T09:41:16.161Z,2.30
2018-02-05T09:43:43.519Z,2.40
2018-02-05T09:46:11.241Z,2.50
2018-02-05T09:48:38.620Z,2.60
2018-02-05T09:51:05.982Z,2.70
2018-02-05T09:53:34.127Z,2.70
2018-02-05T09:56:01.760Z,2.50
2018-02-05T09:58:29.486Z,2.50
2018-02-05T10:00:56.905Z,2.60
2018-02-05T10:03:24.430Z,2.60
2018-02-05T10:05:51.864Z,2.80
2018-02-05T10:08:19.384Z,2.80
2018-02-05T10:10:46.785Z,2.80
2018-02-05T10:13:14.264Z,2.90
2018-02-05T10:15:41.825Z,3.00
2018-02-05T10:18:09.307Z,3.00
2018-02-05T10:20:36.745Z,3.00
2018-02-05T10:23:04.185Z,3.00
2018-02-05T10:25:31.564Z,2.80
2018-02-05T10:30:30.665Z,2.70
2018-02-05T10:32:59.125Z,2.80
2018-02-05T10:35:26.664Z,2.70
2018-02-05T10:37:54.285Z,2.80
2018-02-05T10:40:21.745Z,2.90
2018-02-05T10:42:49.547Z,2.90
2018-02-05T10:45:17.105Z,2.90
2018-02-05T10:47:44.712Z,3.00
2018-02-05T10:50:12.865Z,3.00
2018-02-05T10:52:40.604Z,3.00
2018-02-05T10:55:08.452Z,3.00
2018-02-05T10:57:35.831Z,3.20
2018-02-05T11:00:03.493Z,3.20
2018-02-05T11:02:30.884Z,3.20
2018-02-05T11:04:58.445Z,3.30
2018-02-05T11:07:25.965Z,3.20
2018-02-05T11:09:53.384Z,3.20
2018-02-05T11:12:20.786Z,3.20
2018-02-05T11:14:48.140Z,3.30
2018-02-05T11:17:15.723Z,3.30
2018-02-05T11:19:43.198Z,3.40
2018-02-05T11:22:10.668Z,3.40
2018-02-05T11:24:38.001Z,3.40
2018-02-05T11:27:05.581Z,3.40
2018-02-05T11:29:33.355Z,3.50
2018-02-05T11:32:00.960Z,3.60
2018-02-05T11:34:29.339Z,3.70
2018-02-05T11:36:57.358Z,3.80
2018-02-05T11:39:24.861Z,3.80
2018-02-05T11:41:52.885Z,3.70
2018-02-05T11:44:21.185Z,3.40
2018-02-05T11:46:49.342Z,3.40
2018-02-05T11:49:17.983Z,3.20
2018-02-05T11:51:45.543Z,3.20
2018-02-05T11:54:14.059Z,3.20
2018-02-05T11:56:42.542Z,3.20
2018-02-05T11:59:10.142Z,3.20
2018-02-05T12:01:37.558Z,3.20
2018-02-05T12:04:05.179Z,3.20
2018-02-05T12:06:32.563Z,3.20
2018-02-05T12:09:00.064Z,3.20
2018-02-05T12:11:27.431Z,3.20
2018-02-05T12:13:55.047Z,3.20
2018-02-05T12:16:22.520Z,3.20
2018-02-05T12:18:50.138Z,3.30
2018-02-05T12:21:17.658Z,3.40
2018-02-05T12:23:45.059Z,3.40
2018-02-05T12:26:13.794Z,3.50
2018-02-05T12:28:41.982Z,3.50
2018-02-05T12:31:09.487Z,3.60
2018-02-05T12:33:36.902Z,3.60
2018-02-05T12:36:04.428Z,3.50
2018-02-05T12:38:32.881Z,3.50
2018-02-05T12:41:00.321Z,3.50
2018-02-05T12:43:27.901Z,3.50
2018-02-05T12:45:55.502Z,3.50
2018-02-05T12:48:23.419Z,3.40
2018-02-05T12:50:51.263Z,3.40
2018-02-05T12:53:19.519Z,3.30
2018-02-05T12:55:46.959Z,3.40
2018-02-05T12:58:14.399Z,3.40
2018-02-05T13:00:47.604Z,3.30
2018-02-05T13:03:17.704Z,3.30
2018-02-05T13:05:59.926Z,3.20
2018-02-05T13:08:27.403Z,3.20
2018-02-05T13:10:54.824Z,3.20
2018-02-05T13:13:22.544Z,3.20
2018-02-05T13:15:50.024Z,3.20
2018-02-05T13:18:17.604Z,3.20
2018-02-05T13:20:45.122Z,3.20
2018-02-05T13:23:13.021Z,3.10
2018-02-05T13:25:41.224Z,3.00
2018-02-05T13:28:08.647Z,2.90
2018-02-05T13:30:35.942Z,2.90
2018-02-05T13:33:04.063Z,2.90
2018-02-05T13:35:31.542Z,2.90
2018-02-05T13:37:59.180Z,2.80
2018-02-05T13:40:26.660Z,2.80
2018-02-05T13:42:54.387Z,2.80
2018-02-05T13:45:21.739Z,2.70
2018-02-05T13:47:49.407Z,2.70
2018-02-05T13:50:16.705Z,2.70
2018-02-05T13:52:45.185Z,2.60
2018-02-05T13:55:12.703Z,2.70
2018-02-05T13:57:40.141Z,2.60
2018-02-05T14:00:07.741Z,2.60
2018-02-05T14:02:35.901Z,2.50
2018-02-05T14:05:03.181Z,2.40
2018-02-05T14:07:30.601Z,2.40
2018-02-05T14:09:58.061Z,2.40
2018-02-05T14:12:25.860Z,2.30
2018-02-05T14:14:59.413Z,2.30
2018-02-05T14:17:29.388Z,2.20
2018-02-05T14:20:09.458Z,2.20
2018-02-05T14:22:37.049Z,2.10
2018-02-05T14:25:04.912Z,2.10
2018-02-05T14:27:34.911Z,2.00
2018-02-05T14:30:02.420Z,2.00
2018-02-05T14:32:32.100Z,2.00
2018-02-05T14:34:59.810Z,2.00
2018-02-05T14:37:27.330Z,1.90
2018-02-05T14:39:57.829Z,1.90
2018-02-05T14:42:27.539Z,1.80
2018-02-05T14:44:56.668Z,1.80
2018-02-05T14:47:26.441Z,1.70
2018-02-05T14:49:56.134Z,1.70
2018-02-05T14:52:25.338Z,1.70
2018-02-05T14:54:53.049Z,1.60
2018-02-05T14:57:20.707Z,1.60
2018-02-05T14:59:50.287Z,1.60
2018-02-05T15:02:21.088Z,1.60
2018-02-05T15:04:50.328Z,1.60
2018-02-05T15:07:21.294Z,1.60
2018-02-05T15:09:50.598Z,1.60
2018-02-05T15:12:18.248Z,1.50
2018-02-05T15:14:46.657Z,1.50
2018-02-05T15:17:16.287Z,1.50
2018-02-05T15:19:45.208Z,1.40
2018-02-05T15:22:13.039Z,1.40
2018-02-05T15:24:41.118Z,1.40
2018-02-05T15:27:09.928Z,1.40
2018-02-05T15:29:38.428Z,1.40
2018-02-05T15:32:06.963Z,1.30
2018-02-05T15:34:35.069Z,1.30
2018-02-05T15:37:03.268Z,1.30
2018-02-05T15:39:30.968Z,1.20
2018-02-05T15:41:59.127Z,1.20
2018-02-05T15:44:26.808Z,1.20
2018-02-05T15:46:57.499Z,1.20
2018-02-05T15:49:25.121Z,1.20
2018-02-05T15:51:55.219Z,1.10
2018-02-05T15:54:24.640Z,1.10
2018-02-05T15:56:53.230Z,1.10
2018-02-05T15:59:21.989Z,1.10
2018-02-05T16:01:52.419Z,1.10
2018-02-05T16:04:23.929Z,1.00
2018-02-05T16:06:53.322Z,1.00
2018-02-05T16:09:25.005Z,1.00
2018-02-05T16:11:54.619Z,1.00
2018-02-05T16:14:24.949Z,1.00
2018-02-05T16:16:52.749Z,1.00
2018-02-05T16:19:20.268Z,0.90
2018-02-05T16:21:48.607Z,0.90
2018-02-05T16:24:16.998Z,0.90
2018-02-05T16:26:45.528Z,1.00
2018-02-05T16:29:13.148Z,0.90
2018-02-05T16:31:41.268Z,0.90
2018-02-05T16:34:09.269Z,0.90
2018-02-05T16:36:39.349Z,0.90
2018-02-05T16:39:06.998Z,0.90
2018-02-05T16:41:34.552Z,0.90
2018-02-05T16:44:02.169Z,0.90
2018-02-05T16:46:29.818Z,0.90
2018-02-05T16:48:58.298Z,0.90
2018-02-05T16:51:25.989Z,0.90
2018-02-05T16:53:53.972Z,1.00
2018-02-05T16:56:21.469Z,1.00
2018-02-05T16:58:49.124Z,0.90
2018-02-05T17:01:17.677Z,0.90
2018-02-05T17:03:45.649Z,0.90
2018-02-05T17:06:13.533Z,0.90
2018-02-05T17:08:41.909Z,0.90
2018-02-05T17:11:09.790Z,0.90
2018-02-05T17:13:37.592Z,0.90
2018-02-05T17:16:05.189Z,0.90
2018-02-05T17:18:32.819Z,0.90
2018-02-05T17:21:00.409Z,0.90
2018-02-05T17:23:28.089Z,0.90
2018-02-05T17:25:56.409Z,0.80
2018-02-05T17:28:23.954Z,0.80
2018-02-05T17:30:51.529Z,0.80
2018-02-05T17:33:19.888Z,0.80
2018-02-05T17:35:47.509Z,0.80
2018-02-05T17:38:15.049Z,0.80
2018-02-05T17:40:43.639Z,0.80
2018-02-05T17:43:11.263Z,0.80
2018-02-05T17:45:39.290Z,0.80
2018-02-05T17:48:07.050Z,0.80
2018-02-05T17:50:34.550Z,0.80
2018-02-05T17:55:35.090Z,0.70
2018-02-05T17:58:02.788Z,0.70
2018-02-05T18:00:32.049Z,0.80
2018-02-05T18:02:59.638Z,0.70
2018-02-05T18:05:29.198Z,0.70
2018-02-05T18:07:58.959Z,0.70
2018-02-05T18:10:26.619Z,0.70
2018-02-05T18:12:54.238Z,0.70
2018-02-05T18:15:21.819Z,0.70
2018-02-05T18:17:49.410Z,0.70
2018-02-05T18:20:17.110Z,0.70
2018-02-05T18:22:45.338Z,0.70
2018-02-05T18:25:13.108Z,0.70
2018-02-05T18:27:40.619Z,0.70
2018-02-05T18:30:09.810Z,0.70
2018-02-05T18:32:39.568Z,0.60
2018-02-05T18:35:07.962Z,0.60
2018-02-05T18:37:36.769Z,0.60
2018-02-05T18:40:04.454Z,0.60
2018-02-05T18:42:32.138Z,0.50
2018-02-05T18:44:59.650Z,0.60
2018-02-05T18:47:27.958Z,0.60
2018-02-05T18:49:56.339Z,0.50
2018-02-05T18:52:24.008Z,0.60
2018-02-05T18:54:51.770Z,0.60
2018-02-05T18:57:21.449Z,0.60
2018-02-05T18:59:50.418Z,0.60
2018-02-05T19:02:23.750Z,0.60
2018-02-05T19:04:51.328Z,0.50
2018-02-05T19:07:19.568Z,0.60
2018-02-05T19:09:47.197Z,0.60
2018-02-05T19:12:17.560Z,0.60
2018-02-05T19:14:45.311Z,0.60
2018-02-05T19:19:44.558Z,0.60
2018-02-05T19:22:12.748Z,0.60
2018-02-05T19:24:41.630Z,0.60
2018-02-05T19:27:15.119Z,0.50
2018-02-05T19:29:42.867Z,0.50
2018-02-05T19:32:10.538Z,0.50
2018-02-05T19:34:38.435Z,0.50
2018-02-05T19:37:06.203Z,0.50
2018-02-05T19:39:35.657Z,0.50
2018-02-05T19:42:05.094Z,0.40
2018-02-05T19:44:33.083Z,0.40
2018-02-05T19:47:02.415Z,0.40
2018-02-05T19:49:30.124Z,0.40
2018-02-05T19:51:58.455Z,0.40
2018-02-05T19:54:26.544Z,0.40
2018-02-05T19:56:54.892Z,0.40
2018-02-05T19:59:22.983Z,0.40
2018-02-05T20:01:51.424Z,0.40
2018-02-05T20:04:18.986Z,0.30
2018-02-05T20:06:46.595Z,0.40
2018-02-05T20:09:14.215Z,0.40
2018-02-05T20:11:42.595Z,0.30
2018-02-05T20:14:10.204Z,0.30
2018-02-05T20:16:37.843Z,0.30
2018-02-05T20:19:05.257Z,0.30
2018-02-05T20:21:34.139Z,0.30
2018-02-05T20:24:03.225Z,0.30
2018-02-05T20:26:30.795Z,0.30
2018-02-05T20:28:58.334Z,0.30
2018-02-05T20:31:25.925Z,0.30
2018-02-05T20:33:54.776Z,0.30
2018-02-05T20:36:22.564Z,0.30
2018-02-05T20:38:53.694Z,0.30
2018-02-05T20:41:21.514Z,0.30
2018-02-05T20:43:49.075Z,0.30
2018-02-05T20:46:16.872Z,0.30
2018-02-05T20:48:44.857Z,0.20
2018-02-05T20:51:13.635Z,0.20
2018-02-05T20:53:41.704Z,0.20
2018-02-05T20:56:09.424Z,0.20
2018-02-05T20:58:37.664Z,0.20
2018-02-05T21:01:05.183Z,0.10
2018-02-05T21:03:32.794Z,0.00
2018-02-05T21:06:00.408Z,0.10
2018-02-05T21:08:28.252Z,0.00
2018-02-05T21:10:56.603Z,0.00
2018-02-05T21:13:24.344Z,0.00
2018-02-05T21:15:52.024Z,0.00
2018-02-05T21:18:22.314Z,0.00
2018-02-05T21:20:49.963Z,0.00
2018-02-05T21:23:17.495Z,-0.10
2018-02-05T21:25:45.094Z,-0.10
2018-02-05T21:28:12.623Z,-0.10
2018-02-05T21:30:40.414Z,-0.10
2018-02-05T21:33:08.004Z,-0.10
2018-02-05T21:35:36.732Z,-0.10
2018-02-05T21:38:04.295Z,-0.10
2018-02-05T21:40:31.914Z,-0.10
2018-02-05T21:42:59.473Z,-0.10
2018-02-05T21:45:27.263Z,-0.20
2018-02-05T21:47:54.875Z,-0.20
2018-02-05T21:50:22.463Z,-0.20
2018-02-05T21:52:50.023Z,-0.20
2018-02-05T21:55:17.635Z,-0.20
2018-02-05T21:57:45.255Z,-0.30
2018-02-05T22:00:13.184Z,-0.20
2018-02-05T22:02:40.754Z,-0.30
2018-02-05T22:05:08.343Z,-0.30
2018-02-05T22:07:35.793Z,-0.30
2018-02-05T22:10:04.286Z,-0.30
2018-02-05T22:12:32.706Z,-0.30
2018-02-05T22:15:00.406Z,-0.30
2018-02-05T22:17:27.766Z,-0.40
2018-02-05T22:19:55.226Z,-0.40
2018-02-05T22:22:22.645Z,-0.40
2018-02-05T22:24:50.108Z,-0.40
2018-02-05T22:27:17.447Z,-0.40
2018-02-05T22:29:44.766Z,-0.40
2018-02-05T22:32:12.130Z,-0.40
2018-02-05T22:34:39.566Z,-0.50
2018-02-05T22:37:07.383Z,-0.50
2018-02-05T22:39:34.784Z,-0.50
2018-02-05T22:42:02.245Z,-0.40
2018-02-05T22:44:30.463Z,-0.50
2018-02-05T22:46:57.843Z,-0.50
2018-02-05T22:49:25.223Z,-0.50
2018-02-05T22:51:53.021Z,-0.50
2018-02-05T22:54:20.544Z,-0.50
2018-02-05T22:56:48.699Z,-0.50
2018-02-05T22:59:16.102Z,-0.50
2018-02-05T23:01:43.425Z,-0.50
2018-02-05T23:04:11.265Z,-0.50
2018-02-05T23:06:38.623Z,-0.50
2018-02-05T23:09:06.264Z,-0.50
2018-02-05T23:11:33.690Z,-0.60
2018-02-05T23:14:01.425Z,-0.60
2018-02-05T23:16:28.865Z,-0.50
2018-02-05T23:18:56.324Z,-0.50
2018-02-05T23:21:23.763Z,-0.50
2018-02-05T23:23:51.263Z,-0.40
2018-02-05T23:26:18.584Z,-0.40
2018-02-05T23:28:46.205Z,-0.50
2018-02-05T23:31:13.885Z,-0.50
2018-02-05T23:33:41.566Z,-0.50
2018-02-05T23:36:09.025Z,-0.50
2018-02-05T23:38:36.407Z,-0.50
2018-02-05T23:41:03.747Z,-0.50
2018-02-05T23:43:31.174Z,-0.50
2018-02-05T23:45:58.605Z,-0.50
2018-02-05T23:48:26.125Z,-0.50
2018-02-05T23:50:53.948Z,-0.50
2018-02-05T23:53:21.371Z,-0.50
2018-02-05T23:55:49.408Z,-0.50
2018-02-05T23:58:16.789Z,-0.50
